CPA424 VHHH-RCKH
Flight info
| Callsign | CPA424 |
|---|---|
| Flight time | 1h 0m |
| Altitude | 35000 |
| Route | DALOL V631 ENVAR M750 DADON G581 PORCH PORCH1A |
| Aircraft | A359/H-SDE2E3GHIJ3J4J5LM1ORWXY/LB1D1 |
Departure
| Time | 2026-04-30 21:13 |
|---|---|
| Airport | Hong Kong International Airport (VHHH) |
Arrival
| Time | 2026-04-30 22:13 |
|---|---|
| Airport | Kaohsiung International Airport (RCKH) |
| Time | Latitude | Longitude | Altitude | Speed | Heading |
|---|---|---|---|---|---|
| 2026-04-30 20:48 | 22.31690 | 113.93304 | 40 ft | 0 kts | 72° |
| 2026-04-30 21:00 | 22.31681 | 113.93275 | 40 ft | 2 kts | 72° |
| 2026-04-30 21:01 | 22.31672 | 113.93244 | 40 ft | 2 kts | 69° |
| 2026-04-30 21:01 | 22.31666 | 113.93230 | 40 ft | 2 kts | 63° |
| 2026-04-30 21:01 | 22.31650 | 113.93201 | 40 ft | 2 kts | 54° |
| 2026-04-30 21:02 | 22.31641 | 113.93189 | 40 ft | 2 kts | 49° |
| 2026-04-30 21:02 | 22.31631 | 113.93177 | 40 ft | 2 kts | 44° |
| 2026-04-30 21:02 | 22.31620 | 113.93166 | 40 ft | 2 kts | 40° |
| 2026-04-30 21:02 | 22.31609 | 113.93156 | 40 ft | 2 kts | 51° |
| 2026-04-30 21:03 | 22.31601 | 113.93143 | 40 ft | 2 kts | 64° |
| 2026-04-30 21:03 | 22.31595 | 113.93128 | 40 ft | 2 kts | 72° |
| 2026-04-30 21:03 | 22.31591 | 113.93113 | 40 ft | 1 kts | 71° |
| 2026-04-30 21:03 | 22.31590 | 113.93111 | 40 ft | 0 kts | 71° |
| 2026-04-30 21:05 | 22.31591 | 113.93111 | 40 ft | 0 kts | 71° |
| 2026-04-30 21:06 | 22.31597 | 113.93132 | 40 ft | 5 kts | 71° |
| 2026-04-30 21:06 | 22.31626 | 113.93173 | 40 ft | 8 kts | 33° |
| 2026-04-30 21:06 | 22.31693 | 113.93182 | 40 ft | 11 kts | 349° |
| 2026-04-30 21:06 | 22.31778 | 113.93153 | 40 ft | 14 kts | 341° |
| 2026-04-30 21:07 | 22.31863 | 113.93110 | 40 ft | 10 kts | 304° |
| 2026-04-30 21:07 | 22.31852 | 113.93012 | 40 ft | 14 kts | 250° |
| 2026-04-30 21:07 | 22.31836 | 113.92963 | 40 ft | 18 kts | 251° |
| 2026-04-30 21:07 | 22.31763 | 113.92738 | 40 ft | 25 kts | 251° |
| 2026-04-30 21:08 | 22.31691 | 113.92513 | 40 ft | 26 kts | 251° |
| 2026-04-30 21:08 | 22.31629 | 113.92320 | 40 ft | 27 kts | 251° |
| 2026-04-30 21:08 | 22.31567 | 113.92127 | 40 ft | 25 kts | 251° |
| 2026-04-30 21:08 | 22.31507 | 113.91943 | 40 ft | 26 kts | 251° |
| 2026-04-30 21:09 | 22.31446 | 113.91752 | 40 ft | 27 kts | 251° |
| 2026-04-30 21:09 | 22.31387 | 113.91571 | 40 ft | 24 kts | 251° |
| 2026-04-30 21:09 | 22.31331 | 113.91396 | 40 ft | 24 kts | 251° |
| 2026-04-30 21:09 | 22.31273 | 113.91215 | 40 ft | 26 kts | 251° |
| 2026-04-30 21:10 | 22.31211 | 113.91026 | 40 ft | 27 kts | 251° |
| 2026-04-30 21:10 | 22.31148 | 113.90829 | 40 ft | 28 kts | 251° |
| 2026-04-30 21:10 | 22.31085 | 113.90633 | 40 ft | 26 kts | 251° |
| 2026-04-30 21:10 | 22.31022 | 113.90437 | 40 ft | 28 kts | 251° |
| 2026-04-30 21:11 | 22.30959 | 113.90242 | 40 ft | 27 kts | 251° |
| 2026-04-30 21:11 | 22.30895 | 113.90044 | 40 ft | 28 kts | 251° |
| 2026-04-30 21:11 | 22.30847 | 113.89871 | 40 ft | 15 kts | 275° |
| 2026-04-30 21:11 | 22.30921 | 113.89808 | 40 ft | 18 kts | 342° |
| 2026-04-30 21:12 | 22.31056 | 113.89768 | 40 ft | 10 kts | 5° |
| 2026-04-30 21:12 | 22.31101 | 113.89824 | 40 ft | 9 kts | 69° |
| 2026-04-30 21:12 | 22.31184 | 113.90080 | 40 ft | 71 kts | 71° |
| 2026-04-30 21:12 | 22.31424 | 113.90825 | 41 ft | 135 kts | 70° |
| 2026-04-30 21:13 | 22.31787 | 113.91925 | 258 ft | 166 kts | 70° |
| 2026-04-30 21:13 | 22.32176 | 113.93105 | 939 ft | 167 kts | 70° |
| 2026-04-30 21:13 | 22.32550 | 113.94250 | 1584 ft | 162 kts | 71° |
| 2026-04-30 21:13 | 22.32920 | 113.95390 | 2130 ft | 163 kts | 71° |
| 2026-04-30 21:14 | 22.33285 | 113.96536 | 2657 ft | 164 kts | 75° |
| 2026-04-30 21:14 | 22.33532 | 113.97734 | 3182 ft | 166 kts | 81° |
| 2026-04-30 21:14 | 22.33742 | 113.99010 | 3566 ft | 178 kts | 81° |
| 2026-04-30 21:14 | 22.33960 | 114.00374 | 3904 ft | 194 kts | 81° |
| 2026-04-30 21:15 | 22.34205 | 114.01890 | 4264 ft | 213 kts | 81° |
| 2026-04-30 21:15 | 22.34432 | 114.03516 | 4737 ft | 226 kts | 90° |
| 2026-04-30 21:15 | 22.34187 | 114.05204 | 5378 ft | 232 kts | 111° |
| 2026-04-30 21:15 | 22.33388 | 114.06709 | 6075 ft | 235 kts | 133° |
| 2026-04-30 21:16 | 22.32137 | 114.07855 | 6695 ft | 241 kts | 152° |
| 2026-04-30 21:16 | 22.30579 | 114.08588 | 7183 ft | 252 kts | 169° |
| 2026-04-30 21:16 | 22.28803 | 114.08810 | 7738 ft | 260 kts | 182° |
| 2026-04-30 21:16 | 22.26948 | 114.08782 | 8228 ft | 274 kts | 184° |
| 2026-04-30 21:17 | 22.25012 | 114.08729 | 8728 ft | 287 kts | 185° |
| 2026-04-30 21:17 | 22.22995 | 114.08687 | 9394 ft | 293 kts | 184° |
| 2026-04-30 21:17 | 22.20950 | 114.08659 | 10093 ft | 296 kts | 184° |
| 2026-04-30 21:17 | 22.18857 | 114.08649 | 10631 ft | 307 kts | 180° |
| 2026-04-30 21:18 | 22.16740 | 114.09247 | 10955 ft | 330 kts | 153° |
| 2026-04-30 21:18 | 22.14956 | 114.10900 | 11347 ft | 349 kts | 127° |
| 2026-04-30 21:18 | 22.13762 | 114.13262 | 11732 ft | 364 kts | 117° |
| 2026-04-30 21:18 | 22.12632 | 114.15775 | 12037 ft | 380 kts | 117° |
| 2026-04-30 21:19 | 22.11442 | 114.18375 | 12323 ft | 395 kts | 117° |
| 2026-04-30 21:19 | 22.10185 | 114.21059 | 12759 ft | 405 kts | 118° |
| 2026-04-30 21:19 | 22.08871 | 114.23749 | 13317 ft | 409 kts | 122° |
| 2026-04-30 21:19 | 22.07205 | 114.26205 | 13917 ft | 410 kts | 134° |
| 2026-04-30 21:20 | 22.05143 | 114.28313 | 14530 ft | 409 kts | 143° |
| 2026-04-30 21:20 | 22.02856 | 114.30151 | 15120 ft | 411 kts | 146° |
| 2026-04-30 21:20 | 22.00508 | 114.31952 | 15678 ft | 415 kts | 147° |
| 2026-04-30 21:20 | 21.98157 | 114.33765 | 16227 ft | 418 kts | 146° |
| 2026-04-30 21:21 | 21.95819 | 114.35590 | 16766 ft | 421 kts | 146° |
| 2026-04-30 21:21 | 21.93445 | 114.37453 | 17298 ft | 424 kts | 146° |
| 2026-04-30 21:21 | 21.88626 | 114.41246 | 18337 ft | 430 kts | 146° |
| 2026-04-30 21:22 | 21.86323 | 114.43361 | 18786 ft | 438 kts | 134° |
| 2026-04-30 21:22 | 21.82584 | 114.52323 | 20219 ft | 452 kts | 105° |
| 2026-04-30 21:23 | 21.81784 | 114.55605 | 20633 ft | 456 kts | 105° |
| 2026-04-30 21:23 | 21.80969 | 114.58920 | 21065 ft | 460 kts | 105° |
| 2026-04-30 21:23 | 21.79275 | 114.65612 | 21939 ft | 466 kts | 106° |
| 2026-04-30 21:24 | 21.78419 | 114.68951 | 22360 ft | 469 kts | 106° |
| 2026-04-30 21:24 | 21.77543 | 114.72348 | 22777 ft | 472 kts | 106° |
| 2026-04-30 21:24 | 21.76656 | 114.75770 | 23195 ft | 475 kts | 106° |
| 2026-04-30 21:24 | 21.75768 | 114.79192 | 23568 ft | 479 kts | 106° |
| 2026-04-30 21:25 | 21.74504 | 114.86254 | 24284 ft | 487 kts | 96° |
| 2026-04-30 21:25 | 21.74318 | 114.89906 | 24631 ft | 491 kts | 91° |
| 2026-04-30 21:25 | 21.74301 | 114.93562 | 24983 ft | 494 kts | 90° |
| 2026-04-30 21:26 | 21.74345 | 115.00976 | 25659 ft | 501 kts | 90° |
| 2026-04-30 21:26 | 21.74360 | 115.04758 | 25985 ft | 504 kts | 90° |
| 2026-04-30 21:27 | 21.74365 | 115.12300 | 26608 ft | 510 kts | 90° |
| 2026-04-30 21:27 | 21.74360 | 115.16106 | 26947 ft | 512 kts | 91° |
| 2026-04-30 21:27 | 21.74354 | 115.19928 | 27251 ft | 515 kts | 90° |
| 2026-04-30 21:28 | 21.74341 | 115.27675 | 27801 ft | 521 kts | 91° |
| 2026-04-30 21:28 | 21.74332 | 115.31534 | 28079 ft | 523 kts | 91° |
| 2026-04-30 21:28 | 21.74312 | 115.39381 | 28627 ft | 528 kts | 91° |
| 2026-04-30 21:29 | 21.74301 | 115.43358 | 28863 ft | 532 kts | 91° |
| 2026-04-30 21:29 | 21.74261 | 115.55307 | 29706 ft | 537 kts | 90° |
| 2026-04-30 21:30 | 21.74233 | 115.63345 | 30572 ft | 534 kts | 90° |
| 2026-04-30 21:31 | 21.74187 | 115.75209 | 31953 ft | 527 kts | 91° |
| 2026-04-30 21:31 | 21.74150 | 115.83042 | 32702 ft | 525 kts | 91° |
| 2026-04-30 21:32 | 21.74110 | 115.90865 | 33437 ft | 523 kts | 91° |
| 2026-04-30 21:32 | 21.74087 | 115.94737 | 33725 ft | 524 kts | 91° |
| 2026-04-30 21:32 | 21.74064 | 115.98667 | 33986 ft | 525 kts | 91° |
| 2026-04-30 21:32 | 21.74042 | 116.02566 | 34227 ft | 526 kts | 91° |
| 2026-04-30 21:33 | 21.74019 | 116.06521 | 34481 ft | 527 kts | 91° |
| 2026-04-30 21:33 | 21.73971 | 116.14391 | 34939 ft | 529 kts | 91° |
| 2026-04-30 21:34 | 21.73915 | 116.22286 | 34965 ft | 530 kts | 91° |
| 2026-04-30 21:34 | 21.73826 | 116.34150 | 34971 ft | 531 kts | 91° |
| 2026-04-30 21:35 | 21.73760 | 116.42055 | 34968 ft | 531 kts | 91° |
| 2026-04-30 21:35 | 21.73692 | 116.49958 | 34974 ft | 530 kts | 91° |
| 2026-04-30 21:36 | 21.73621 | 116.57858 | 34972 ft | 531 kts | 91° |
| 2026-04-30 21:37 | 21.73885 | 116.73688 | 34974 ft | 531 kts | 84° |
| 2026-04-30 21:37 | 21.75108 | 116.81522 | 34975 ft | 532 kts | 77° |
| 2026-04-30 21:38 | 21.77198 | 116.89086 | 34975 ft | 531 kts | 69° |
| 2026-04-30 21:38 | 21.79860 | 116.96449 | 34976 ft | 530 kts | 68° |
| 2026-04-30 21:39 | 21.82561 | 117.03803 | 34973 ft | 530 kts | 68° |
| 2026-04-30 21:39 | 21.85251 | 117.11206 | 34975 ft | 530 kts | 68° |
| 2026-04-30 21:40 | 21.87913 | 117.18586 | 34977 ft | 531 kts | 68° |
| 2026-04-30 21:40 | 21.90573 | 117.25978 | 34979 ft | 531 kts | 68° |
| 2026-04-30 21:41 | 21.93225 | 117.33357 | 34976 ft | 532 kts | 68° |
| 2026-04-30 21:41 | 21.95899 | 117.40818 | 34975 ft | 532 kts | 68° |
| 2026-04-30 21:42 | 21.98666 | 117.48149 | 34980 ft | 531 kts | 64° |
| 2026-04-30 21:42 | 22.02101 | 117.55183 | 34982 ft | 530 kts | 57° |
| 2026-04-30 21:43 | 22.05307 | 117.60829 | 34979 ft | 530 kts | 56° |
| 2026-04-30 21:43 | 22.09817 | 117.68713 | 34979 ft | 531 kts | 57° |
| 2026-04-30 21:44 | 22.13663 | 117.75474 | 34981 ft | 530 kts | 57° |
| 2026-04-30 21:44 | 22.17507 | 117.82247 | 34985 ft | 530 kts | 57° |
| 2026-04-30 21:45 | 22.21324 | 117.89008 | 34982 ft | 530 kts | 57° |
| 2026-04-30 21:45 | 22.24645 | 117.96089 | 34981 ft | 531 kts | 69° |
| 2026-04-30 21:46 | 22.26433 | 118.03825 | 34838 ft | 533 kts | 83° |
| 2026-04-30 21:46 | 22.26696 | 118.07755 | 34405 ft | 530 kts | 90° |
| 2026-04-30 21:46 | 22.26535 | 118.11733 | 33847 ft | 526 kts | 97° |
| 2026-04-30 21:47 | 22.26114 | 118.15613 | 33199 ft | 524 kts | 99° |
| 2026-04-30 21:47 | 22.25623 | 118.19495 | 32531 ft | 523 kts | 99° |
| 2026-04-30 21:47 | 22.25133 | 118.23328 | 31839 ft | 523 kts | 99° |
| 2026-04-30 21:47 | 22.24651 | 118.27206 | 31125 ft | 523 kts | 98° |
| 2026-04-30 21:48 | 22.24180 | 118.31124 | 30391 ft | 524 kts | 98° |
| 2026-04-30 21:48 | 22.23721 | 118.35009 | 29658 ft | 524 kts | 98° |
| 2026-04-30 21:48 | 22.23269 | 118.38878 | 28957 ft | 524 kts | 98° |
| 2026-04-30 21:48 | 22.22820 | 118.42731 | 28535 ft | 521 kts | 98° |
| 2026-04-30 21:49 | 22.22371 | 118.46581 | 28071 ft | 516 kts | 98° |
| 2026-04-30 21:49 | 22.21921 | 118.50431 | 27531 ft | 513 kts | 98° |
| 2026-04-30 21:49 | 22.21479 | 118.54205 | 27066 ft | 508 kts | 98° |
| 2026-04-30 21:49 | 22.21043 | 118.57935 | 26606 ft | 503 kts | 97° |
| 2026-04-30 21:50 | 22.20606 | 118.61674 | 26156 ft | 498 kts | 98° |
| 2026-04-30 21:50 | 22.20175 | 118.65344 | 25697 ft | 493 kts | 98° |
| 2026-04-30 21:50 | 22.19749 | 118.68970 | 25262 ft | 488 kts | 98° |
| 2026-04-30 21:50 | 22.19327 | 118.72552 | 24823 ft | 484 kts | 98° |
| 2026-04-30 21:51 | 22.18903 | 118.76148 | 24375 ft | 479 kts | 98° |
| 2026-04-30 21:51 | 22.18484 | 118.79665 | 23934 ft | 475 kts | 98° |
| 2026-04-30 21:51 | 22.18066 | 118.83171 | 23496 ft | 471 kts | 98° |
| 2026-04-30 21:51 | 22.17647 | 118.86677 | 23077 ft | 466 kts | 98° |
| 2026-04-30 21:52 | 22.17235 | 118.90115 | 22648 ft | 461 kts | 98° |
| 2026-04-30 21:52 | 22.16831 | 118.93483 | 22238 ft | 457 kts | 98° |
| 2026-04-30 21:52 | 22.16426 | 118.96871 | 21814 ft | 453 kts | 98° |
| 2026-04-30 21:52 | 22.16021 | 119.00234 | 21367 ft | 450 kts | 98° |
| 2026-04-30 21:53 | 22.15616 | 119.03566 | 20925 ft | 447 kts | 98° |
| 2026-04-30 21:53 | 22.15219 | 119.06833 | 20485 ft | 444 kts | 98° |
| 2026-04-30 21:53 | 22.14816 | 119.10155 | 20023 ft | 441 kts | 98° |
| 2026-04-30 21:53 | 22.14426 | 119.13390 | 19580 ft | 438 kts | 98° |
| 2026-04-30 21:54 | 22.14034 | 119.16644 | 19137 ft | 436 kts | 98° |
| 2026-04-30 21:54 | 22.13647 | 119.19852 | 18694 ft | 433 kts | 98° |
| 2026-04-30 21:54 | 22.13256 | 119.23076 | 18250 ft | 430 kts | 98° |
| 2026-04-30 21:54 | 22.12870 | 119.26242 | 17808 ft | 428 kts | 98° |
| 2026-04-30 21:55 | 22.12488 | 119.29376 | 17365 ft | 426 kts | 98° |
| 2026-04-30 21:55 | 22.12101 | 119.32532 | 16930 ft | 423 kts | 98° |
| 2026-04-30 21:55 | 22.11719 | 119.35652 | 16494 ft | 421 kts | 98° |
| 2026-04-30 21:55 | 22.11333 | 119.38799 | 16059 ft | 418 kts | 98° |
| 2026-04-30 21:56 | 22.10956 | 119.41869 | 15639 ft | 415 kts | 98° |
| 2026-04-30 21:56 | 22.10581 | 119.44916 | 15224 ft | 412 kts | 98° |
| 2026-04-30 21:56 | 22.10206 | 119.47965 | 14800 ft | 410 kts | 98° |
| 2026-04-30 21:56 | 22.09830 | 119.51008 | 14379 ft | 407 kts | 98° |
| 2026-04-30 21:57 | 22.09456 | 119.54028 | 13964 ft | 405 kts | 98° |
| 2026-04-30 21:57 | 22.09084 | 119.57026 | 13540 ft | 402 kts | 98° |
| 2026-04-30 21:57 | 22.08716 | 119.59986 | 13131 ft | 399 kts | 98° |
| 2026-04-30 21:57 | 22.08349 | 119.62936 | 12722 ft | 397 kts | 98° |
| 2026-04-30 21:58 | 22.07986 | 119.65865 | 12311 ft | 394 kts | 98° |
| 2026-04-30 21:58 | 22.07628 | 119.68754 | 11903 ft | 391 kts | 98° |
| 2026-04-30 21:58 | 22.07267 | 119.71664 | 11495 ft | 388 kts | 98° |
| 2026-04-30 21:58 | 22.06912 | 119.74518 | 11085 ft | 385 kts | 98° |
| 2026-04-30 21:59 | 22.06557 | 119.77356 | 10686 ft | 381 kts | 98° |
| 2026-04-30 21:59 | 22.06208 | 119.80137 | 10544 ft | 369 kts | 98° |
| 2026-04-30 21:59 | 22.05869 | 119.82828 | 10428 ft | 356 kts | 98° |
| 2026-04-30 22:00 | 22.05222 | 119.87945 | 10236 ft | 332 kts | 98° |
| 2026-04-30 22:00 | 22.04624 | 119.92670 | 10097 ft | 308 kts | 98° |
| 2026-04-30 22:00 | 22.04464 | 119.94927 | 9994 ft | 299 kts | 81° |
| 2026-04-30 22:01 | 22.05151 | 119.96994 | 9745 ft | 291 kts | 52° |
| 2026-04-30 22:01 | 22.06595 | 119.98450 | 9464 ft | 283 kts | 25° |
| 2026-04-30 22:01 | 22.08426 | 119.99107 | 9229 ft | 275 kts | 7° |
| 2026-04-30 22:01 | 22.10331 | 119.99464 | 8955 ft | 274 kts | 6° |
| 2026-04-30 22:02 | 22.12203 | 119.99807 | 8701 ft | 274 kts | 6° |
| 2026-04-30 22:02 | 22.14093 | 120.00164 | 8437 ft | 273 kts | 7° |
| 2026-04-30 22:02 | 22.15968 | 120.00530 | 8185 ft | 272 kts | 7° |
| 2026-04-30 22:02 | 22.17824 | 120.00899 | 7936 ft | 271 kts | 8° |
| 2026-04-30 22:03 | 22.19668 | 120.01269 | 7684 ft | 271 kts | 8° |
| 2026-04-30 22:03 | 22.21533 | 120.01648 | 7423 ft | 270 kts | 9° |
| 2026-04-30 22:03 | 22.23377 | 120.02024 | 7170 ft | 269 kts | 9° |
| 2026-04-30 22:03 | 22.25231 | 120.02403 | 6923 ft | 269 kts | 9° |
| 2026-04-30 22:04 | 22.27045 | 120.02775 | 6672 ft | 268 kts | 9° |
| 2026-04-30 22:04 | 22.28899 | 120.03154 | 6422 ft | 267 kts | 9° |
| 2026-04-30 22:04 | 22.32545 | 120.03901 | 5939 ft | 266 kts | 10° |
| 2026-04-30 22:05 | 22.34375 | 120.04275 | 5689 ft | 265 kts | 10° |
| 2026-04-30 22:05 | 22.36195 | 120.04649 | 5443 ft | 265 kts | 10° |
| 2026-04-30 22:05 | 22.37993 | 120.05017 | 5203 ft | 264 kts | 11° |
| 2026-04-30 22:05 | 22.39788 | 120.05385 | 4966 ft | 263 kts | 11° |
| 2026-04-30 22:06 | 22.41586 | 120.05752 | 4733 ft | 261 kts | 11° |
| 2026-04-30 22:06 | 22.45175 | 120.06488 | 4264 ft | 260 kts | 11° |
| 2026-04-30 22:06 | 22.46949 | 120.06853 | 4023 ft | 259 kts | 11° |
| 2026-04-30 22:07 | 22.48721 | 120.07217 | 3787 ft | 259 kts | 12° |
| 2026-04-30 22:07 | 22.50485 | 120.07580 | 3557 ft | 258 kts | 12° |
| 2026-04-30 22:07 | 22.52265 | 120.07945 | 3327 ft | 257 kts | 12° |
| 2026-04-30 22:07 | 22.54016 | 120.08305 | 3097 ft | 256 kts | 12° |
| 2026-04-30 22:08 | 22.55757 | 120.08664 | 2868 ft | 255 kts | 12° |
| 2026-04-30 22:08 | 22.57385 | 120.09348 | 2579 ft | 252 kts | 42° |
| 2026-04-30 22:08 | 22.58328 | 120.10854 | 2543 ft | 236 kts | 75° |
| 2026-04-30 22:08 | 22.58497 | 120.12569 | 2522 ft | 224 kts | 91° |
| 2026-04-30 22:09 | 22.58427 | 120.14215 | 2487 ft | 213 kts | 94° |
| 2026-04-30 22:09 | 22.58332 | 120.15773 | 2442 ft | 204 kts | 93° |
| 2026-04-30 22:09 | 22.58259 | 120.17265 | 2427 ft | 197 kts | 92° |
| 2026-04-30 22:09 | 22.58205 | 120.18721 | 2406 ft | 185 kts | 91° |
| 2026-04-30 22:10 | 22.58164 | 120.20066 | 2372 ft | 177 kts | 91° |
| 2026-04-30 22:10 | 22.58125 | 120.21373 | 2202 ft | 168 kts | 91° |
| 2026-04-30 22:10 | 22.58088 | 120.22608 | 1968 ft | 161 kts | 90° |
| 2026-04-30 22:10 | 22.58052 | 120.23803 | 1762 ft | 160 kts | 90° |
| 2026-04-30 22:11 | 22.57980 | 120.26147 | 1350 ft | 151 kts | 89° |
| 2026-04-30 22:11 | 22.57945 | 120.27274 | 1160 ft | 149 kts | 89° |
| 2026-04-30 22:11 | 22.57911 | 120.28394 | 974 ft | 149 kts | 90° |
| 2026-04-30 22:12 | 22.57876 | 120.29504 | 789 ft | 148 kts | 90° |
| 2026-04-30 22:12 | 22.57841 | 120.30625 | 594 ft | 148 kts | 89° |
| 2026-04-30 22:12 | 22.57810 | 120.31724 | 406 ft | 147 kts | 90° |
| 2026-04-30 22:12 | 22.57776 | 120.32837 | 216 ft | 146 kts | 90° |
| 2026-04-30 22:13 | 22.57750 | 120.33927 | 51 ft | 144 kts | 92° |
| 2026-04-30 22:13 | 22.57711 | 120.34885 | 38 ft | 100 kts | 92° |
| 2026-04-30 22:13 | 22.57693 | 120.35414 | 36 ft | 48 kts | 92° |
| 2026-04-30 22:13 | 22.57682 | 120.35748 | 36 ft | 42 kts | 91° |
| 2026-04-30 22:14 | 22.57628 | 120.35915 | 35 ft | 16 kts | 169° |
| 2026-04-30 22:14 | 22.57567 | 120.35915 | 36 ft | 11 kts | 181° |
| 2026-04-30 22:14 | 22.57516 | 120.35885 | 38 ft | 9 kts | 251° |
| 2026-04-30 22:14 | 22.57515 | 120.35793 | 39 ft | 16 kts | 272° |
| 2026-04-30 22:15 | 22.57520 | 120.35634 | 39 ft | 24 kts | 271° |
| 2026-04-30 22:15 | 22.57526 | 120.35449 | 39 ft | 25 kts | 271° |
| 2026-04-30 22:15 | 22.57531 | 120.35273 | 39 ft | 23 kts | 271° |
| 2026-04-30 22:15 | 22.57537 | 120.35089 | 39 ft | 25 kts | 271° |
| 2026-04-30 22:16 | 22.57542 | 120.34897 | 39 ft | 26 kts | 272° |
| 2026-04-30 22:16 | 22.57549 | 120.34698 | 39 ft | 20 kts | 272° |
| 2026-04-30 22:17 | 22.57405 | 120.34605 | 38 ft | 6 kts | 221° |
| 2026-04-30 22:17 | 22.57394 | 120.34548 | 37 ft | 10 kts | 271° |
| 2026-04-30 22:17 | 22.57395 | 120.34347 | 35 ft | 6 kts | 243° |
| 2026-04-30 22:18 | 22.57343 | 120.34325 | 36 ft | 9 kts | 184° |
| 2026-04-30 22:18 | 22.57259 | 120.34308 | 37 ft | 3 kts | 262° |
| 2026-04-30 22:19 | 22.57264 | 120.34238 | 36 ft | 0 kts | 271° |